Time;durP1;ratioP1;P1;durP2;ratioP2;P2;SDS_P1;SDS_P2;PMS_P1;PMS_P2;Temp;Humidity;BMP_temperature;BMP_pressure;BME280_temperature;BME280_humidity;BME280_pressure;Samples;Min_cycle;Max_cycle;Signal;HPM_P1;HPM_P2
2021/09/16 00:00:12;;;;;;;6.53;1.80;;;15.90;79.50;;;;;;5054159;28;20369;-49
2021/09/16 00:02:39;;;;;;;5.22;1.70;;;15.90;79.40;;;;;;5053231;28;20056;-49
2021/09/16 00:05:05;;;;;;;4.30;1.48;;;15.80;79.30;;;;;;5052757;28;20025;-50
2021/09/16 00:07:30;;;;;;;4.80;1.77;;;15.90;78.40;;;;;;5053158;28;20025;-52
2021/09/16 00:09:56;;;;;;;5.10;3.15;;;15.90;78.30;;;;;;5053522;28;20040;-50
2021/09/16 00:12:21;;;;;;;5.35;1.80;;;16.00;78.00;;;;;;5053615;28;20029;-50
2021/09/16 00:14:47;;;;;;;3.22;1.48;;;15.90;78.20;;;;;;5053145;28;20074;-48
2021/09/16 00:17:13;;;;;;;2.15;1.38;;;15.80;78.30;;;;;;5053089;28;20059;-49
2021/09/16 00:19:38;;;;;;;4.50;2.50;;;15.80;78.20;;;;;;5052842;28;20036;-49
2021/09/16 00:22:04;;;;;;;6.22;2.70;;;15.80;78.40;;;;;;5053058;28;20032;-48
2021/09/16 00:24:30;;;;;;;3.28;1.20;;;15.80;78.00;;;;;;5053004;28;20013;-52
2021/09/16 00:26:55;;;;;;;2.25;1.42;;;15.80;78.10;;;;;;5053248;28;20101;-48
2021/09/16 00:29:21;;;;;;;4.57;1.65;;;15.80;78.50;;;;;;5053096;28;20039;-49
2021/09/16 00:31:46;;;;;;;8.73;1.40;;;15.90;77.90;;;;;;5053203;28;20032;-49
2021/09/16 00:34:12;;;;;;;2.42;1.30;;;15.90;77.40;;;;;;5052802;28;20044;-48
2021/09/16 00:36:38;;;;;;;4.22;1.13;;;15.90;76.60;;;;;;5052939;28;20055;-49
2021/09/16 00:39:04;;;;;;;5.88;1.60;;;15.80;75.90;;;;;;5052793;28;20021;-48
2021/09/16 00:41:30;;;;;;;5.20;1.30;;;15.90;75.00;;;;;;5052871;28;20107;-49
2021/09/16 00:43:56;;;;;;;3.65;1.15;;;16.00;75.00;;;;;;5053008;28;20045;-50
2021/09/16 00:46:22;;;;;;;6.28;2.05;;;16.00;74.80;;;;;;5051820;28;20025;-50
2021/09/16 00:48:48;;;;;;;3.45;1.35;;;16.00;74.10;;;;;;5052680;28;20063;-48
2021/09/16 00:51:13;;;;;;;5.65;1.38;;;16.10;73.50;;;;;;5052971;28;20067;-50
2021/09/16 00:53:40;;;;;;;1.95;1.20;;;16.10;73.00;;;;;;5052677;28;20076;-48
2021/09/16 00:56:08;;;;;;;4.50;1.90;;;16.20;72.90;;;;;;5052671;28;20048;-49
2021/09/16 00:58:41;;;;;;;2.50;1.30;;;16.10;73.20;;;;;;5052337;28;20052;-49
2021/09/16 01:01:08;;;;;;;6.07;1.65;;;16.10;73.90;;;;;;5052490;28;20033;-48
2021/09/16 01:03:34;;;;;;;5.10;1.77;;;16.20;73.80;;;;;;5052896;28;20373;-50
2021/09/16 01:06:00;;;;;;;3.53;1.35;;;16.20;73.50;;;;;;5052269;28;20571;-50
2021/09/16 01:08:26;;;;;;;5.03;1.67;;;16.10;73.60;;;;;;5052449;28;20037;-48
2021/09/16 01:10:52;;;;;;;5.30;1.40;;;16.10;74.20;;;;;;5052730;28;20074;-49
2021/09/16 01:13:18;;;;;;;8.40;2.00;;;15.90;74.60;;;;;;5052211;28;20025;-50
2021/09/16 01:15:45;;;;;;;2.88;1.42;;;15.70;75.70;;;;;;5052145;28;20025;-52
2021/09/16 01:18:12;;;;;;;2.70;2.13;;;15.60;76.10;;;;;;5055048;28;20064;-48
2021/09/16 01:20:39;;;;;;;3.95;1.60;;;15.60;76.20;;;;;;5055953;28;20367;-48
2021/09/16 01:23:04;;;;;;;6.35;2.13;;;15.60;76.40;;;;;;5055925;28;20017;-48
2021/09/16 01:25:31;;;;;;;2.92;1.45;;;15.60;76.70;;;;;;5055862;28;20091;-48
2021/09/16 01:27:59;;;;;;;11.02;2.10;;;15.60;77.00;;;;;;5055999;28;20047;-49
2021/09/16 01:30:25;;;;;;;7.63;2.35;;;15.60;77.20;;;;;;5055802;28;20469;-48
2021/09/16 01:32:54;;;;;;;3.45;1.50;;;15.50;77.40;;;;;;5054367;28;20032;-48
2021/09/16 01:35:21;;;;;;;6.90;1.98;;;15.50;77.70;;;;;;5056010;28;20032;-48
2021/09/16 01:37:46;;;;;;;3.40;1.45;;;15.40;78.20;;;;;;5055677;28;20028;-48
2021/09/16 01:40:12;;;;;;;7.18;1.70;;;15.50;78.60;;;;;;5055850;28;20029;-48
2021/09/16 01:42:42;;;;;;;5.40;1.75;;;15.40;78.80;;;;;;5056075;28;20354;-48
2021/09/16 01:45:12;;;;;;;;;;;15.50;78.50;;;;;;5056395;28;20017;-45
2021/09/16 01:47:38;;;;;;;1.75;1.58;;;15.40;78.80;;;;;;5056181;28;19904;-47
2021/09/16 01:50:04;;;;;;;6.63;2.30;;;15.40;78.90;;;;;;5055660;28;20559;-51
2021/09/16 01:52:30;;;;;;;1.77;1.58;;;15.40;78.90;;;;;;5055744;28;20024;-51
2021/09/16 01:54:55;;;;;;;4.13;1.70;;;15.50;78.60;;;;;;5055625;28;20481;-50
2021/09/16 01:57:21;;;;;;;4.88;2.33;;;15.50;78.80;;;;;;5055719;28;20094;-47
2021/09/16 01:59:46;;;;;;;4.90;2.00;;;15.70;78.50;;;;;;5055517;28;20029;-48
2021/09/16 02:02:12;;;;;;;3.60;1.92;;;15.70;78.50;;;;;;5055416;28;20044;-48
2021/09/16 02:04:37;;;;;;;3.08;1.40;;;15.60;78.90;;;;;;5055481;28;20036;-49
2021/09/16 02:07:03;;;;;;;6.40;2.20;;;15.50;79.40;;;;;;5055507;28;20017;-49
2021/09/16 02:09:29;;;;;;;6.03;2.00;;;15.60;79.30;;;;;;5055309;28;20028;-48
2021/09/16 02:11:54;;;;;;;3.47;1.65;;;15.50;79.50;;;;;;5055363;28;20112;-53
2021/09/16 02:14:20;;;;;;;3.17;1.50;;;15.40;80.00;;;;;;5055295;28;20043;-50
2021/09/16 02:16:45;;;;;;;2.70;1.40;;;15.40;80.00;;;;;;5054948;28;20041;-49
2021/09/16 02:19:11;;;;;;;5.68;1.77;;;15.50;80.00;;;;;;5055070;28;20032;-49
2021/09/16 02:21:37;;;;;;;5.40;2.10;;;15.50;79.90;;;;;;5055164;28;20354;-49
2021/09/16 02:24:03;;;;;;;4.63;1.65;;;15.30;80.50;;;;;;5055260;28;20032;-48
2021/09/16 02:26:28;;;;;;;6.78;2.00;;;15.20;81.20;;;;;;5054967;28;20223;-48
2021/09/16 02:28:54;;;;;;;6.35;1.90;;;15.10;81.50;;;;;;5054663;28;20024;-49
2021/09/16 02:31:20;;;;;;;2.92;1.75;;;15.00;81.70;;;;;;5055194;28;20029;-48
2021/09/16 02:33:45;;;;;;;6.20;1.88;;;14.90;82.00;;;;;;5054808;28;20127;-49
2021/09/16 02:36:11;;;;;;;8.80;2.03;;;14.90;82.20;;;;;;5054849;28;20025;-49
2021/09/16 02:38:36;;;;;;;10.35;1.90;;;14.80;82.40;;;;;;5054645;28;20032;-50
2021/09/16 02:41:02;;;;;;;1.88;1.45;;;14.80;82.80;;;;;;5054787;28;20410;-49
2021/09/16 02:43:28;;;;;;;8.75;1.95;;;14.80;82.90;;;;;;5054627;28;20094;-51
2021/09/16 02:45:53;;;;;;;6.72;2.28;;;14.70;83.00;;;;;;5054502;28;20021;-48
2021/09/16 02:48:19;;;;;;;3.42;1.77;;;14.60;83.40;;;;;;5054828;28;20124;-47
2021/09/16 02:50:44;;;;;;;4.53;1.70;;;14.70;83.50;;;;;;5054488;28;20503;-49
2021/09/16 02:53:10;;;;;;;7.70;3.55;;;14.60;83.70;;;;;;5053176;28;20493;-48
2021/09/16 02:55:36;;;;;;;4.70;1.73;;;14.50;83.80;;;;;;5053237;28;20120;-48
2021/09/16 02:58:01;;;;;;;3.75;1.60;;;14.40;83.90;;;;;;5054324;28;20032;-49
2021/09/16 03:00:27;;;;;;;10.35;2.60;;;14.40;84.30;;;;;;5054789;28;20171;-49
2021/09/16 03:02:53;;;;;;;4.68;1.70;;;14.40;84.20;;;;;;5054326;28;20071;-51
2021/09/16 03:05:18;;;;;;;9.00;2.30;;;14.30;84.50;;;;;;5054256;28;20071;-49
2021/09/16 03:07:44;;;;;;;4.75;2.20;;;14.30;84.60;;;;;;5052970;28;20432;-48
2021/09/16 03:10:12;;;;;;;11.60;3.88;;;14.30;84.60;;;;;;5054434;28;20025;-48
2021/09/16 03:12:38;;;;;;;6.88;2.78;;;14.30;84.70;;;;;;5054289;28;20106;-47
2021/09/16 03:15:04;;;;;;;5.07;1.92;;;14.20;84.80;;;;;;5053981;28;20053;-49
2021/09/16 03:17:30;;;;;;;6.05;2.15;;;14.10;85.10;;;;;;5054100;28;20045;-53
2021/09/16 03:19:55;;;;;;;2.70;1.80;;;14.20;85.10;;;;;;5053879;28;20032;-47
2021/09/16 03:22:21;;;;;;;13.45;2.80;;;14.20;85.10;;;;;;5053666;28;20452;-48
2021/09/16 03:24:46;;;;;;;7.40;2.05;;;14.10;85.30;;;;;;5053225;28;20029;-52
2021/09/16 03:27:12;;;;;;;6.30;2.60;;;14.20;84.90;;;;;;5053756;28;20021;-47
2021/09/16 03:29:38;;;;;;;3.63;1.70;;;14.20;84.90;;;;;;5053636;28;20052;-49
2021/09/16 03:32:04;;;;;;;6.22;1.98;;;14.20;85.10;;;;;;5053180;28;20381;-51
2021/09/16 03:34:29;;;;;;;4.80;2.15;;;14.10;85.20;;;;;;5053537;28;20381;-48
2021/09/16 03:36:55;;;;;;;6.43;2.55;;;14.00;85.50;;;;;;5053321;28;20048;-48
2021/09/16 03:39:20;;;;;;;4.35;2.80;;;14.00;85.80;;;;;;5052484;28;20033;-48
2021/09/16 03:41:46;;;;;;;9.43;2.45;;;14.00;86.00;;;;;;5053393;28;20025;-49
2021/09/16 03:44:11;;;;;;;4.68;2.03;;;14.00;85.90;;;;;;5053285;28;20048;-49
2021/09/16 03:46:37;;;;;;;7.22;3.17;;;13.90;86.10;;;;;;5053169;28;20017;-48
2021/09/16 03:49:03;;;;;;;7.65;2.33;;;13.90;86.30;;;;;;5053095;28;20027;-48
2021/09/16 03:51:28;;;;;;;7.45;2.30;;;13.80;86.70;;;;;;5051670;28;20338;-49
2021/09/16 03:53:54;;;;;;;5.88;2.30;;;13.80;86.60;;;;;;5053065;28;20410;-50
2021/09/16 03:56:20;;;;;;;7.75;1.80;;;13.80;86.70;;;;;;5053144;28;20060;-49
2021/09/16 03:58:45;;;;;;;6.32;2.47;;;13.80;87.10;;;;;;5053108;28;20035;-48
2021/09/16 04:01:11;;;;;;;7.50;2.80;;;13.80;87.20;;;;;;5052894;28;20051;-48
2021/09/16 04:03:36;;;;;;;7.28;2.13;;;13.70;87.30;;;;;;5052798;28;20079;-50
2021/09/16 04:06:02;;;;;;;10.65;5.03;;;13.60;87.50;;;;;;5052766;28;20028;-47
2021/09/16 04:08:28;;;;;;;8.35;2.22;;;13.60;87.70;;;;;;5052398;28;20036;-48
2021/09/16 04:10:53;;;;;;;7.28;2.28;;;13.60;87.80;;;;;;5052485;28;20029;-49
2021/09/16 04:13:19;;;;;;;5.95;1.90;;;13.60;87.80;;;;;;5052925;28;20104;-48
2021/09/16 04:15:44;;;;;;;10.18;2.63;;;13.60;87.80;;;;;;5053187;28;20051;-50
2021/09/16 04:18:10;;;;;;;6.03;3.03;;;13.50;88.10;;;;;;5052542;28;20052;-52
2021/09/16 04:20:36;;;;;;;15.25;4.60;;;13.50;88.10;;;;;;5052808;28;20025;-48
2021/09/16 04:23:01;;;;;;;8.60;2.97;;;13.50;88.10;;;;;;5052924;28;20032;-51
2021/09/16 04:25:27;;;;;;;8.63;2.55;;;13.50;88.30;;;;;;5052992;28;20031;-49
2021/09/16 04:27:53;;;;;;;6.07;2.90;;;13.40;88.60;;;;;;5052770;28;20380;-47
2021/09/16 04:30:18;;;;;;;5.32;2.78;;;13.40;88.60;;;;;;5053123;28;20071;-50
2021/09/16 04:32:44;;;;;;;5.60;3.38;;;13.40;88.70;;;;;;5052689;28;20049;-47
2021/09/16 04:35:10;;;;;;;9.95;3.50;;;13.30;88.80;;;;;;5052692;28;20350;-48
2021/09/16 04:37:36;;;;;;;15.70;5.00;;;13.30;88.80;;;;;;5052644;28;20025;-49
2021/09/16 04:40:03;;;;;;;11.07;4.20;;;13.30;89.10;;;;;;5052536;28;20088;-48
2021/09/16 04:42:29;;;;;;;19.15;4.60;;;13.30;89.20;;;;;;5053064;28;20040;-48
2021/09/16 04:44:54;;;;;;;5.57;4.00;;;13.30;89.30;;;;;;5052453;28;20473;-50
2021/09/16 04:47:20;;;;;;;13.05;5.07;;;13.30;89.40;;;;;;5051268;28;20082;-48
2021/09/16 04:49:46;;;;;;;8.88;4.05;;;13.30;89.50;;;;;;5052783;28;20033;-48
2021/09/16 04:52:11;;;;;;;11.00;4.68;;;13.30;89.50;;;;;;5055861;28;20029;-47
2021/09/16 04:54:37;;;;;;;10.07;4.55;;;13.30;89.60;;;;;;5056623;28;20056;-47
2021/09/16 04:57:03;;;;;;;6.47;4.85;;;13.20;89.80;;;;;;5056947;28;20028;-49
2021/09/16 04:59:28;;;;;;;11.05;4.22;;;13.20;89.70;;;;;;5056729;28;20425;-52
2021/09/16 05:01:54;;;;;;;17.15;5.45;;;13.20;90.00;;;;;;5056646;28;20025;-51
2021/09/16 05:04:19;;;;;;;9.93;4.85;;;13.10;90.30;;;;;;5056475;28;20423;-52
2021/09/16 05:06:45;;;;;;;15.32;5.93;;;13.20;90.20;;;;;;5056396;28;20047;-49
2021/09/16 05:09:11;;;;;;;13.35;4.90;;;13.30;89.90;;;;;;5056802;28;20401;-50
2021/09/16 05:11:42;;;;;;;9.68;5.53;;;13.30;90.20;;;;;;5056310;28;20037;-52
2021/09/16 05:14:09;;;;;;;7.82;5.00;;;13.40;89.60;;;;;;5056589;28;20107;-47
2021/09/16 05:16:37;;;;;;;12.68;4.13;;;13.30;89.60;;;;;;5056495;28;20101;-49
2021/09/16 05:19:03;;;;;;;14.57;5.35;;;13.50;89.50;;;;;;5056226;28;20080;-48
2021/09/16 05:21:28;;;;;;;10.30;4.53;;;13.50;89.30;;;;;;5054575;28;20049;-49
2021/09/16 05:23:55;;;;;;;8.45;4.53;;;13.40;89.50;;;;;;5055966;28;20429;-49
2021/09/16 05:26:20;;;;;;;13.27;5.45;;;13.50;89.70;;;;;;5054522;28;20043;-49
2021/09/16 05:28:46;;;;;;;9.77;5.22;;;13.60;89.20;;;;;;5055898;28;20112;-51
2021/09/16 05:31:12;;;;;;;17.25;4.80;;;13.70;88.60;;;;;;5054570;28;20029;-49
2021/09/16 05:33:37;;;;;;;8.45;4.93;;;13.70;88.70;;;;;;5055979;28;20037;-48
2021/09/16 05:36:04;;;;;;;12.73;5.65;;;13.70;88.80;;;;;;5056060;28;20461;-47
2021/09/16 05:38:30;;;;;;;9.40;4.97;;;13.60;88.80;;;;;;5055453;28;20025;-49
2021/09/16 05:40:56;;;;;;;16.17;5.85;;;13.70;88.60;;;;;;5055491;28;20017;-49
2021/09/16 05:43:21;;;;;;;12.57;5.80;;;13.70;88.70;;;;;;5054333;28;20040;-50
2021/09/16 05:45:47;;;;;;;9.82;6.07;;;13.80;88.70;;;;;;5055575;28;20036;-51
2021/09/16 05:48:13;;;;;;;12.55;4.85;;;13.80;88.60;;;;;;5054985;28;20491;-49
2021/09/16 05:50:39;;;;;;;15.02;5.55;;;13.80;88.70;;;;;;5055261;28;20178;-47
2021/09/16 05:53:04;;;;;;;14.38;5.57;;;13.90;88.40;;;;;;5053974;28;20413;-48
2021/09/16 05:55:30;;;;;;;14.30;6.45;;;13.90;88.00;;;;;;5053910;28;20025;-48
2021/09/16 05:57:56;;;;;;;13.05;6.50;;;14.00;88.30;;;;;;5055532;28;20354;-51
2021/09/16 06:00:23;;;;;;;13.27;6.10;;;13.90;88.30;;;;;;5055532;28;20028;-48
2021/09/16 06:02:50;;;;;;;11.20;5.68;;;14.00;88.10;;;;;;5054672;28;20021;-48
2021/09/16 06:05:16;;;;;;;13.15;5.75;;;14.10;88.00;;;;;;5055620;28;20090;-50
2021/09/16 06:07:41;;;;;;;12.73;6.45;;;14.10;87.90;;;;;;5053588;28;20472;-48
2021/09/16 06:10:08;;;;;;;15.35;5.93;;;14.10;88.00;;;;;;5054869;28;20053;-48
2021/09/16 06:12:34;;;;;;;13.43;6.18;;;14.10;88.20;;;;;;5055268;28;20095;-49
2021/09/16 06:15:00;;;;;;;13.38;6.10;;;14.20;87.80;;;;;;5055168;28;20061;-48
2021/09/16 06:17:25;;;;;;;14.65;6.38;;;14.00;88.30;;;;;;5054790;28;20053;-50
2021/09/16 06:19:51;;;;;;;12.10;6.35;;;14.10;88.10;;;;;;5054736;28;20067;-48
2021/09/16 06:22:18;;;;;;;15.32;6.43;;;14.10;88.10;;;;;;5054974;28;20055;-49
2021/09/16 06:24:43;;;;;;;14.95;6.47;;;14.20;87.90;;;;;;5055116;28;20031;-49
2021/09/16 06:27:09;;;;;;;14.27;5.97;;;14.30;87.50;;;;;;5054432;28;20512;-47
2021/09/16 06:29:35;;;;;;;20.77;6.70;;;14.30;87.50;;;;;;5054208;28;20032;-48
2021/09/16 06:32:00;;;;;;;10.10;5.72;;;14.30;87.40;;;;;;5054917;28;20064;-47
2021/09/16 06:34:26;;;;;;;14.82;5.50;;;14.30;87.60;;;;;;5054867;28;20029;-47
2021/09/16 06:36:53;;;;;;;12.52;5.75;;;14.40;86.80;;;;;;5054550;28;20080;-51
2021/09/16 06:39:20;;;;;;;11.93;6.32;;;14.20;87.90;;;;;;5054511;28;20032;-49
2021/09/16 06:41:46;;;;;;;16.48;9.10;;;14.30;87.70;;;;;;5052805;28;20120;-48
2021/09/16 06:44:11;;;;;;;13.20;6.60;;;14.30;87.60;;;;;;5054752;28;20057;-47
2021/09/16 06:46:37;;;;;;;16.30;7.28;;;14.40;87.20;;;;;;5054066;28;20029;-48
2021/09/16 06:49:03;;;;;;;18.45;7.82;;;14.40;87.20;;;;;;5054227;28;20037;-48
2021/09/16 06:51:28;;;;;;;9.70;5.90;;;14.40;87.60;;;;;;5054246;28;20353;-51
2021/09/16 06:53:55;;;;;;;12.05;6.70;;;14.50;86.90;;;;;;5053676;28;20031;-50
2021/09/16 06:56:20;;;;;;;10.40;6.15;;;14.40;87.70;;;;;;5053831;28;20037;-49
2021/09/16 06:58:46;;;;;;;12.82;7.45;;;14.50;87.80;;;;;;5054084;28;20041;-49
2021/09/16 07:01:11;;;;;;;15.20;7.53;;;14.50;87.60;;;;;;5054414;28;20445;-50
2021/09/16 07:03:37;;;;;;;10.02;7.78;;;14.60;87.60;;;;;;5054257;28;20025;-49
2021/09/16 07:06:03;;;;;;;11.18;7.28;;;14.50;87.60;;;;;;5052598;28;20024;-48
2021/09/16 07:08:28;;;;;;;10.35;7.95;;;14.50;87.90;;;;;;5054049;28;20036;-52
2021/09/16 07:10:54;;;;;;;10.68;8.65;;;14.60;87.80;;;;;;5053967;28;20497;-48
2021/09/16 07:13:20;;;;;;;16.30;9.63;;;14.70;87.80;;;;;;5054364;28;20468;-51
2021/09/16 07:15:46;;;;;;;15.32;8.23;;;14.80;87.50;;;;;;5052521;28;20108;-49
2021/09/16 07:18:11;;;;;;;16.33;10.20;;;14.70;87.70;;;;;;5053545;28;20210;-49
2021/09/16 07:20:37;;;;;;;15.77;9.00;;;14.60;88.00;;;;;;5053838;28;20078;-49
2021/09/16 07:23:02;;;;;;;14.90;8.35;;;14.60;88.10;;;;;;5053857;28;20044;-49
2021/09/16 07:25:28;;;;;;;13.52;8.80;;;14.70;88.00;;;;;;5053643;28;20021;-54
2021/09/16 07:27:54;;;;;;;18.17;9.55;;;14.80;87.70;;;;;;5054185;28;20028;-48
2021/09/16 07:30:20;;;;;;;21.58;10.15;;;14.80;87.70;;;;;;5053877;28;20032;-49
2021/09/16 07:32:45;;;;;;;18.65;10.27;;;14.80;87.70;;;;;;5052327;28;20120;-47
2021/09/16 07:35:11;;;;;;;14.55;10.45;;;14.80;87.60;;;;;;5053446;28;20029;-48
2021/09/16 07:37:37;;;;;;;18.23;10.93;;;14.70;88.00;;;;;;5053623;28;20083;-49
2021/09/16 07:40:04;;;;;;;15.20;9.25;;;14.80;88.00;;;;;;5053359;28;20055;-51
2021/09/16 07:42:30;;;;;;;16.38;9.80;;;14.80;87.70;;;;;;5053156;28;20079;-47
2021/09/16 07:44:55;;;;;;;18.52;10.68;;;14.90;87.30;;;;;;5051681;28;20029;-48
2021/09/16 07:47:21;;;;;;;12.80;9.13;;;15.00;87.50;;;;;;5052987;28;20052;-49
2021/09/16 07:49:47;;;;;;;17.00;9.40;;;14.90;87.50;;;;;;5052834;28;20021;-52
2021/09/16 07:52:14;;;;;;;17.00;10.40;;;15.00;87.40;;;;;;5052758;28;20025;-48
2021/09/16 07:54:40;;;;;;;14.77;8.60;;;15.20;86.90;;;;;;5053023;28;20021;-48
2021/09/16 07:57:06;;;;;;;13.77;8.48;;;15.00;87.20;;;;;;5052657;28;20396;-48
2021/09/16 07:59:31;;;;;;;19.05;8.40;;;15.10;87.20;;;;;;5052478;28;20053;-48
2021/09/16 08:01:57;;;;;;;15.23;8.32;;;15.20;86.50;;;;;;5052850;28;20063;-49
2021/09/16 08:04:23;;;;;;;12.88;7.43;;;15.30;86.20;;;;;;5053605;28;20021;-51
2021/09/16 08:06:49;;;;;;;10.10;7.45;;;15.50;85.80;;;;;;5051770;28;20047;-49
2021/09/16 08:09:15;;;;;;;13.45;9.95;;;15.60;85.30;;;;;;5053078;28;20029;-50
2021/09/16 08:11:40;;;;;;;13.20;7.28;;;15.70;85.30;;;;;;5052190;28;20033;-47
2021/09/16 08:14:07;;;;;;;15.18;6.22;;;15.80;84.60;;;;;;5052815;28;20481;-47
2021/09/16 08:16:33;;;;;;;11.20;7.32;;;15.80;84.30;;;;;;5052712;28;20071;-48
2021/09/16 08:18:58;;;;;;;7.97;6.10;;;15.90;84.10;;;;;;5034419;28;20045;-49
2021/09/16 08:21:24;;;;;;;12.27;6.53;;;16.10;83.50;;;;;;5052609;28;20474;-49
2021/09/16 08:23:51;;;;;;;15.52;8.00;;;16.40;83.00;;;;;;5051517;28;20116;-51
2021/09/16 08:26:17;;;;;;;13.45;7.38;;;16.30;82.70;;;;;;5052223;28;20557;-53
2021/09/16 08:28:42;;;;;;;10.88;6.43;;;16.20;83.10;;;;;;5052800;28;20132;-48
2021/09/16 08:31:09;;;;;;;15.35;7.57;;;16.30;82.90;;;;;;5052713;28;20029;-48
2021/09/16 08:33:35;;;;;;;15.30;7.13;;;16.50;82.30;;;;;;5052331;28;20037;-48
2021/09/16 08:36:01;;;;;;;12.70;7.15;;;16.40;82.30;;;;;;5052656;28;20052;-48
2021/09/16 08:38:27;;;;;;;17.33;6.38;;;16.30;82.70;;;;;;5050803;28;20021;-47
2021/09/16 08:40:52;;;;;;;12.30;6.25;;;16.10;83.40;;;;;;5051512;28;20032;-49
2021/09/16 08:43:28;;;;;;;11.55;5.75;;;16.30;83.30;;;;;;5052121;28;20021;-49
2021/09/16 08:45:53;;;;;;;14.85;6.63;;;16.40;83.20;;;;;;5050791;28;20025;-49
2021/09/16 08:48:19;;;;;;;11.38;6.32;;;16.60;82.50;;;;;;5052071;28;20139;-48
2021/09/16 08:50:45;;;;;;;12.07;6.45;;;16.60;82.40;;;;;;5052092;28;20429;-48
2021/09/16 08:53:17;;;;;;;12.93;6.20;;;16.80;82.40;;;;;;5052086;28;20029;-52
2021/09/16 08:55:46;;;;;;;12.35;6.15;;;16.80;81.70;;;;;;5051659;28;20420;-49
2021/09/16 08:58:12;;;;;;;11.00;5.78;;;16.70;81.70;;;;;;5052313;28;20128;-47
2021/09/16 09:00:39;;;;;;;7.85;5.15;;;16.50;82.40;;;;;;5052004;28;20113;-52
2021/09/16 09:03:05;;;;;;;7.88;5.53;;;16.60;82.30;;;;;;5051546;28;20052;-48
2021/09/16 09:05:31;;;;;;;12.60;4.75;;;17.10;81.60;;;;;;5052015;28;20083;-50
2021/09/16 09:07:59;;;;;;;9.15;4.97;;;17.20;80.60;;;;;;5052009;28;20025;-50
2021/09/16 09:10:47;;;;;;;9.48;4.82;;;17.00;81.30;;;;;;5052001;28;20049;-51
2021/09/16 09:13:20;;;;;;;7.82;5.70;;;16.80;81.60;;;;;;5051552;28;20025;-48
2021/09/16 09:15:48;;;;;;;8.75;5.15;;;16.90;82.10;;;;;;5050743;28;20478;-50
2021/09/16 09:18:16;;;;;;;7.13;4.80;;;17.10;80.80;;;;;;5051735;28;20044;-48
2021/09/16 09:21:06;;;;;;;10.30;6.07;;;17.20;80.60;;;;;;5051779;28;20032;-48
2021/09/16 09:23:34;;;;;;;12.05;5.63;;;17.00;80.80;;;;;;5051320;28;20069;-48
2021/09/16 09:26:20;;;;;;;9.18;5.22;;;17.00;80.80;;;;;;5052114;28;20025;-50
2021/09/16 09:28:46;;;;;;;11.38;5.65;;;17.30;79.90;;;;;;5050709;28;20025;-49
2021/09/16 09:31:18;;;;;;;7.88;4.78;;;17.50;79.20;;;;;;5050510;28;20032;-49
2021/09/16 09:33:44;;;;;;;8.55;5.05;;;17.70;78.10;;;;;;5051732;28;20032;-49
2021/09/16 09:36:14;;;;;;;11.15;4.55;;;17.50;78.70;;;;;;5051603;28;20029;-48
2021/09/16 09:39:03;;;;;;;9.68;4.35;;;17.50;78.70;;;;;;5053665;28;20025;-48
2021/09/16 09:41:37;;;;;;;8.88;4.70;;;17.50;78.70;;;;;;5054926;28;20036;-49
2021/09/16 09:44:09;;;;;;;9.23;5.65;;;17.70;77.90;;;;;;5055290;28;20383;-49
2021/09/16 09:46:52;;;;;;;11.32;5.95;;;18.10;77.30;;;;;;5053951;28;20033;-49
2021/09/16 09:49:21;;;;;;;7.63;4.88;;;18.10;76.50;;;;;;5055621;28;20025;-52
2021/09/16 09:51:51;;;;;;;14.20;4.30;;;18.00;76.50;;;;;;5055151;28;20071;-49
2021/09/16 09:54:21;;;;;;;7.90;3.85;;;18.20;76.20;;;;;;5053920;28;20025;-48
2021/09/16 09:57:04;;;;;;;6.97;3.58;;;18.40;75.20;;;;;;5055208;28;20546;-48
2021/09/16 09:59:57;;;;;;;9.23;3.90;;;18.40;75.00;;;;;;5054909;28;20029;-48
2021/09/16 10:02:30;;;;;;;4.07;3.38;;;18.70;74.20;;;;;;5053458;28;20021;-48
2021/09/16 10:04:56;;;;;;;8.27;4.22;;;18.70;74.60;;;;;;5053714;28;20484;-48
2021/09/16 10:07:37;;;;;;;7.82;4.20;;;18.30;75.30;;;;;;5054824;28;20017;-49
2021/09/16 10:10:09;;;;;;;6.72;3.17;;;18.10;76.00;;;;;;5056176;28;20067;-49
2021/09/16 10:12:35;;;;;;;6.97;3.22;;;18.10;75.50;;;;;;5054506;28;20029;-48
2021/09/16 10:15:01;;;;;;;10.88;5.68;;;18.10;75.10;;;;;;5054661;28;20166;-49
2021/09/16 10:17:27;;;;;;;5.85;2.80;;;18.40;74.50;;;;;;5054273;28;20056;-48
2021/09/16 10:19:53;;;;;;;4.03;2.80;;;18.20;75.10;;;;;;5054140;28;20037;-49
2021/09/16 10:22:19;;;;;;;7.00;3.25;;;18.30;74.50;;;;;;5054594;28;20025;-49
2021/09/16 10:24:46;;;;;;;6.13;2.83;;;18.30;74.50;;;;;;5054276;28;20070;-50
2021/09/16 10:27:48;;;;;;;6.00;2.53;;;18.50;73.80;;;;;;5054341;28;20040;-48
2021/09/16 10:30:22;;;;;;;4.88;2.70;;;18.80;73.30;;;;;;5052151;28;20104;-47
2021/09/16 10:33:07;;;;;;;5.55;1.95;;;18.80;74.10;;;;;;5050003;28;20450;-49
2021/09/16 10:35:38;;;;;;;3.08;2.22;;;19.00;72.80;;;;;;5054457;28;20472;-51
2021/09/16 10:38:24;;;;;;;5.35;2.53;;;19.10;71.40;;;;;;5054490;28;20024;-47
2021/09/16 10:41:17;;;;;;;2.40;1.60;;;19.80;69.90;;;;;;5054098;28;20021;-49
2021/09/16 10:43:45;;;;;;;4.32;1.70;;;21.30;65.00;;;;;;5054329;28;20025;-50
2021/09/16 10:46:24;;;;;;;5.82;2.00;;;21.20;63.50;;;;;;5053774;28;20055;-49
2021/09/16 10:48:49;;;;;;;3.20;1.50;;;20.60;65.30;;;;;;5053855;28;20029;-49
2021/09/16 10:51:39;;;;;;;3.72;1.73;;;21.00;64.50;;;;;;5054025;28;20028;-49
2021/09/16 10:54:24;;;;;;;6.05;1.67;;;20.50;64.30;;;;;;5052020;28;20051;-50
2021/09/16 10:57:13;;;;;;;2.35;1.30;;;20.00;65.70;;;;;;5053692;28;20102;-50
2021/09/16 10:59:51;;;;;;;4.40;2.13;;;19.80;66.60;;;;;;5053721;28;20048;-50
2021/09/16 11:02:55;;;;;;;2.65;1.70;;;19.80;67.50;;;;;;5054993;28;20463;-53
2021/09/16 11:05:20;;;;;;;5.90;1.90;;;20.80;65.40;;;;;;5054221;28;20088;-49
2021/09/16 11:07:49;;;;;;;1.98;1.30;;;21.80;61.10;;;;;;5054100;28;20017;-51
2021/09/16 11:10:15;;;;;;;3.65;1.42;;;21.70;60.70;;;;;;5053878;28;20025;-50
2021/09/16 11:13:08;;;;;;;6.63;1.27;;;21.00;61.80;;;;;;5053705;28;20032;-50
2021/09/16 11:15:37;;;;;;;2.63;1.30;;;20.50;63.70;;;;;;5053947;28;20033;-50
2021/09/16 11:18:10;;;;;;;2.83;1.20;;;20.10;64.90;;;;;;5053563;28;20048;-47
2021/09/16 11:20:37;;;;;;;3.15;1.10;;;19.80;66.00;;;;;;5053616;28;20037;-48
2021/09/16 11:23:07;;;;;;;4.47;1.40;;;19.70;66.70;;;;;;5053766;28;20021;-50
2021/09/16 11:25:41;;;;;;;3.67;1.67;;;19.40;67.30;;;;;;5053798;28;20078;-48
2021/09/16 11:28:07;;;;;;;11.82;3.80;;;19.60;66.80;;;;;;5053573;28;20252;-47
2021/09/16 11:30:35;;;;;;;2.50;1.25;;;20.40;64.90;;;;;;5052603;28;20477;-48
2021/09/16 11:33:09;;;;;;;3.30;1.80;;;22.20;59.00;;;;;;5053369;28;20112;-51
2021/09/16 11:35:35;;;;;;;3.50;1.00;;;22.40;57.70;;;;;;5053499;28;20470;-49
2021/09/16 11:38:02;;;;;;;3.72;1.42;;;21.60;60.00;;;;;;5053307;28;20031;-48
2021/09/16 11:40:36;;;;;;;3.50;1.60;;;20.80;63.00;;;;;;5052509;28;20021;-51
2021/09/16 11:43:07;;;;;;;1.02;0.90;;;20.10;64.70;;;;;;5053339;28;20124;-49
2021/09/16 11:45:40;;;;;;;1.52;0.95;;;19.60;66.20;;;;;;5053246;28;20017;-48
2021/09/16 11:48:20;;;;;;;2.85;1.20;;;19.40;67.10;;;;;;5052994;28;20021;-48
2021/09/16 11:50:50;;;;;;;;;;;19.20;67.80;;;;;;5053831;28;20108;-47
2021/09/16 11:53:25;;;;;;;2.10;1.60;;;18.80;68.60;;;;;;5052868;28;20375;-48
2021/09/16 11:55:56;;;;;;;3.63;1.50;;;19.00;68.40;;;;;;5052737;28;20513;-49
2021/09/16 11:58:25;;;;;;;2.03;1.40;;;18.90;69.00;;;;;;5053082;28;20032;-48
2021/09/16 12:00:56;;;;;;;4.68;1.88;;;18.90;69.20;;;;;;5051944;28;20390;-50
2021/09/16 12:03:26;;;;;;;2.45;1.60;;;18.80;69.60;;;;;;5052948;28;20381;-52
2021/09/16 12:05:53;;;;;;;5.50;1.60;;;18.70;70.10;;;;;;5052988;28;20037;-50
2021/09/16 12:08:30;;;;;;;4.22;1.60;;;18.70;70.30;;;;;;5052207;28;20029;-51
2021/09/16 12:11:14;;;;;;;2.70;1.33;;;18.60;70.20;;;;;;5052263;28;20124;-47
2021/09/16 12:13:50;;;;;;;3.65;1.60;;;18.60;70.60;;;;;;5051560;28;20024;-48
2021/09/16 12:16:21;;;;;;;2.63;1.52;;;18.80;69.80;;;;;;5052470;28;20377;-50
2021/09/16 12:18:58;;;;;;;6.57;2.28;;;18.80;69.70;;;;;;5051792;28;20048;-51
2021/09/16 12:21:52;;;;;;;4.95;1.08;;;19.70;65.70;;;;;;5052370;28;20048;-48
2021/09/16 12:24:20;;;;;;;3.88;1.45;;;21.40;59.60;;;;;;5053015;28;20040;-52
2021/09/16 12:26:51;;;;;;;2.50;1.05;;;21.50;58.40;;;;;;5055297;28;20025;-51
2021/09/16 12:29:25;;;;;;;3.00;0.95;;;21.30;58.20;;;;;;5054051;28;20032;-53
2021/09/16 12:32:01;;;;;;;3.40;1.27;;;21.60;56.60;;;;;;5054119;28;20139;-48
2021/09/16 12:34:35;;;;;;;2.65;1.52;;;20.90;59.00;;;;;;5052751;28;20430;-50
2021/09/16 12:37:09;;;;;;;2.97;1.08;;;20.50;59.90;;;;;;5052638;28;20092;-52
2021/09/16 12:39:46;;;;;;;1.75;0.90;;;20.40;60.10;;;;;;5054328;28;20057;-52
2021/09/16 12:42:29;;;;;;;2.50;1.60;;;20.80;59.60;;;;;;5053379;28;20052;-50
2021/09/16 12:45:10;;;;;;;4.32;1.38;;;20.80;59.90;;;;;;5053865;28;20576;-52
2021/09/16 12:47:49;;;;;;;5.45;1.73;;;20.80;60.50;;;;;;5054057;28;20035;-49